Time;durP1;ratioP1;P1;durP2;ratioP2;P2;SDS_P1;SDS_P2;PMS_P1;PMS_P2;Temp;Humidity;BMP_temperature;BMP_pressure;BME280_temperature;BME280_humidity;BME280_pressure;Samples;Min_cycle;Max_cycle;Signal;HPM_P1;HPM_P2
2023/10/31 00:00:13;;;;;;;11.63;8.38;;;;;;;10.95;100.00;99581.56;5013311;28;20113;-67
2023/10/31 00:02:39;;;;;;;11.48;8.18;;;;;;;10.95;100.00;99589.50;5013543;28;20501;-68
2023/10/31 00:05:04;;;;;;;9.68;8.27;;;;;;;10.94;100.00;99591.28;5013616;28;20503;-67
2023/10/31 00:07:30;;;;;;;9.70;7.60;;;;;;;10.96;100.00;99588.59;5012179;28;20080;-67
2023/10/31 00:09:55;;;;;;;11.82;8.45;;;;;;;10.95;100.00;99587.72;5013205;28;20054;-67
2023/10/31 00:12:21;;;;;;;11.70;7.88;;;;;;;10.94;100.00;99596.56;5012021;28;20022;-68
2023/10/31 00:14:46;;;;;;;9.95;7.30;;;;;;;10.92;100.00;99595.72;5013334;28;20435;-67
2023/10/31 00:17:11;;;;;;;9.57;6.90;;;;;;;10.90;100.00;99597.47;5013280;28;20032;-68
2023/10/31 00:19:37;;;;;;;8.70;6.80;;;;;;;10.89;100.00;99608.94;5013261;28;20553;-67
2023/10/31 00:22:03;;;;;;;9.32;6.80;;;;;;;10.87;100.00;99615.13;5013232;28;20030;-68
2023/10/31 00:24:28;;;;;;;11.00;6.07;;;;;;;10.89;100.00;99613.38;5012962;28;20050;-67
2023/10/31 00:26:54;;;;;;;11.43;6.03;;;;;;;10.88;100.00;99611.63;5012953;28;20053;-67
2023/10/31 00:29:19;;;;;;;9.38;5.28;;;;;;;10.85;100.00;99604.59;5013208;28;20072;-68
2023/10/31 00:31:45;;;;;;;8.43;5.35;;;;;;;10.87;100.00;99609.84;5013039;28;20496;-68
2023/10/31 00:34:10;;;;;;;7.63;4.95;;;;;;;10.84;100.00;99621.34;5013020;28;20073;-68
2023/10/31 00:36:35;;;;;;;6.75;4.70;;;;;;;10.83;100.00;99618.69;5013005;28;20109;-69
2023/10/31 00:39:01;;;;;;;9.68;4.57;;;;;;;10.80;100.00;99624.91;5012487;28;20061;-69
2023/10/31 00:41:26;;;;;;;7.90;4.10;;;;;;;10.77;100.00;99627.56;5013932;28;20024;-67
2023/10/31 00:43:51;;;;;;;8.23;4.05;;;;;;;10.74;100.00;99631.09;5017138;28;20037;-67
2023/10/31 00:46:17;;;;;;;8.27;3.90;;;;;;;10.75;100.00;99627.59;5016932;28;20034;-67
2023/10/31 00:48:42;;;;;;;5.85;3.50;;;;;;;10.77;100.00;99631.09;5015798;28;20594;-67
2023/10/31 00:51:07;;;;;;;5.75;3.50;;;;;;;10.84;100.00;99642.50;5016783;28;20030;-67
2023/10/31 00:53:33;;;;;;;6.68;3.60;;;;;;;10.87;100.00;99638.91;5016743;28;20583;-67
2023/10/31 00:55:58;;;;;;;7.18;3.30;;;;;;;10.87;100.00;99642.44;5016689;28;20026;-68
2023/10/31 00:58:24;;;;;;;7.50;3.30;;;;;;;10.89;100.00;99642.44;5016884;28;20527;-68
2023/10/31 01:00:49;;;;;;;7.40;3.25;;;;;;;10.87;100.00;99645.06;5016686;28;20041;-66
2023/10/31 01:03:15;;;;;;;6.82;3.30;;;;;;;10.83;100.00;99640.72;5016654;28;20105;-67
2023/10/31 01:05:40;;;;;;;7.93;3.80;;;;;;;10.80;100.00;99650.47;5016735;28;20026;-67
2023/10/31 01:08:05;;;;;;;5.88;3.00;;;;;;;10.79;100.00;99646.91;5016270;28;20038;-66
2023/10/31 01:10:31;;;;;;;9.77;3.30;;;;;;;10.80;100.00;99658.38;5016599;28;20026;-67
2023/10/31 01:12:56;;;;;;;7.68;3.20;;;;;;;10.84;100.00;99660.97;5016402;28;20069;-68
2023/10/31 01:15:21;;;;;;;7.25;3.13;;;;;;;10.85;100.00;99665.38;5016308;28;20037;-67
2023/10/31 01:17:47;;;;;;;7.15;3.47;;;;;;;10.82;100.00;99661.88;5016152;28;20048;-65
2023/10/31 01:20:13;;;;;;;6.57;4.03;;;;;;;10.75;100.00;99659.31;5016478;28;20032;-67
2023/10/31 01:22:38;;;;;;;9.75;5.32;;;;;;;10.73;100.00;99663.72;5014924;28;20053;-67
2023/10/31 01:25:04;;;;;;;10.35;6.00;;;;;;;10.73;100.00;99658.44;5016311;28;20026;-67
2023/10/31 01:27:29;;;;;;;10.52;6.32;;;;;;;10.74;100.00;99661.94;5016038;28;20033;-67
2023/10/31 01:29:55;;;;;;;12.55;7.30;;;;;;;10.70;100.00;99662.84;5014886;28;20109;-68
2023/10/31 01:32:20;;;;;;;13.50;9.40;;;;;;;10.67;100.00;99668.19;5016319;28;20045;-67
2023/10/31 01:34:46;;;;;;;14.20;9.32;;;;;;;10.62;100.00;99669.97;5015987;28;20030;-68
2023/10/31 01:37:12;;;;;;;15.13;10.07;;;;;;;10.64;100.00;99665.56;5014903;28;20041;-66
2023/10/31 01:39:38;;;;;;;19.70;11.63;;;;;;;10.58;100.00;99658.56;5015418;28;20042;-68
2023/10/31 01:42:03;;;;;;;18.83;12.55;;;;;;;10.63;100.00;99667.34;5016133;28;20034;-67
2023/10/31 01:44:29;;;;;;;20.63;12.25;;;;;;;10.59;100.00;99665.59;5016112;28;20022;-67
2023/10/31 01:46:55;;;;;;;23.30;12.85;;;;;;;10.56;100.00;99668.25;5015669;28;20543;-68
2023/10/31 01:49:21;;;;;;;22.40;14.10;;;;;;;10.57;100.00;99674.41;5015833;28;20026;-66
2023/10/31 01:51:47;;;;;;;20.42;13.27;;;;;;;10.58;100.00;99668.25;5015577;28;20025;-68
2023/10/31 01:54:14;;;;;;;20.30;13.50;;;;;;;10.61;100.00;99665.59;5015591;28;20026;-67
2023/10/31 01:56:40;;;;;;;24.40;14.73;;;;;;;10.58;100.00;99666.50;5015646;28;20022;-66
2023/10/31 01:59:05;;;;;;;25.05;15.23;;;;;;;10.57;100.00;99667.38;5015799;28;20100;-67
2023/10/31 02:01:32;;;;;;;25.58;15.25;;;;;;;10.55;100.00;99663.00;5015610;28;20480;-68
2023/10/31 02:03:58;;;;;;;25.48;15.55;;;;;;;10.53;100.00;99671.81;5015633;28;20037;-67
2023/10/31 02:06:24;;;;;;;21.95;15.70;;;;;;;10.56;100.00;99673.53;5015657;28;20030;-66
2023/10/31 02:08:50;;;;;;;25.17;16.85;;;;;;;10.53;100.00;99678.84;5015454;28;20422;-68
2023/10/31 02:11:15;;;;;;;25.70;16.83;;;;;;;10.54;100.00;99683.25;5015262;28;20034;-66
2023/10/31 02:13:40;;;;;;;26.15;17.35;;;;;;;10.56;100.00;99685.88;5015246;28;20034;-67
2023/10/31 02:16:06;;;;;;;29.67;17.20;;;;;;;10.53;100.00;99685.03;5015247;28;20033;-68
2023/10/31 02:18:33;;;;;;;28.58;18.23;;;;;;;10.53;100.00;99684.13;5015072;28;20117;-67
2023/10/31 02:20:59;;;;;;;28.90;18.70;;;;;;;10.52;100.00;99677.09;5015065;28;20092;-67
2023/10/31 02:23:24;;;;;;;28.50;17.73;;;;;;;10.54;100.00;99680.63;5015265;28;20029;-67
2023/10/31 02:25:50;;;;;;;30.98;18.80;;;;;;;10.55;100.00;99678.84;5014910;28;20019;-67
2023/10/31 02:28:15;;;;;;;31.52;17.67;;;;;;;10.57;100.00;99671.78;4997352;28;20060;-66
2023/10/31 02:30:41;;;;;;;31.52;19.08;;;;;;;10.58;100.00;99674.44;5015028;28;20026;-68
2023/10/31 02:33:06;;;;;;;31.10;18.67;;;;;;;10.61;100.00;99679.66;5014822;28;20034;-64
2023/10/31 02:35:32;;;;;;;29.23;18.60;;;;;;;10.58;100.00;99679.72;5014752;28;20472;-67
2023/10/31 02:37:57;;;;;;;31.33;19.55;;;;;;;10.58;100.00;99676.16;5014417;28;20195;-68
2023/10/31 02:40:24;;;;;;;30.25;20.40;;;;;;;10.59;100.00;99678.81;5014898;28;20054;-66
2023/10/31 02:42:49;;;;;;;28.50;19.20;;;;;;;10.62;100.00;99684.06;5014434;28;20034;-66
2023/10/31 02:45:15;;;;;;;31.50;19.73;;;;;;;10.60;100.00;99683.19;5014481;28;20030;-64
2023/10/31 02:47:40;;;;;;;34.10;20.52;;;;;;;10.63;100.00;99684.94;5012997;28;20522;-65
2023/10/31 02:50:06;;;;;;;32.05;20.65;;;;;;;10.61;100.00;99690.22;5014645;28;20108;-67
2023/10/31 02:52:31;;;;;;;27.83;19.75;;;;;;;10.63;100.00;99692.88;5014590;28;20080;-66
2023/10/31 02:54:57;;;;;;;31.00;19.42;;;;;;;10.63;100.00;99701.69;5014242;28;20022;-65
2023/10/31 02:57:22;;;;;;;35.70;21.27;;;;;;;10.63;100.00;99698.16;5014367;28;20089;-66
2023/10/31 02:59:47;;;;;;;38.00;21.77;;;;;;;10.64;100.00;99705.19;5013252;28;20071;-65
2023/10/31 03:02:13;;;;;;;33.75;21.00;;;;;;;10.65;100.00;99701.66;5012963;28;20041;-66
2023/10/31 03:04:38;;;;;;;34.55;21.35;;;;;;;10.64;100.00;99705.19;5013671;28;20037;-67
2023/10/31 03:07:04;;;;;;;34.35;21.67;;;;;;;10.66;100.00;99709.59;5014154;28;20454;-65
2023/10/31 03:09:29;;;;;;;32.35;21.90;;;;;;;10.66;100.00;99716.59;5013843;28;20026;-67
2023/10/31 03:11:55;;;;;;;36.40;21.38;;;;;;;10.64;100.00;99714.00;5014186;28;20014;-65
2023/10/31 03:14:20;;;;;;;31.33;21.23;;;;;;;10.67;100.00;99715.75;5014165;28;20025;-64
2023/10/31 03:16:45;;;;;;;32.25;19.98;;;;;;;10.69;100.00;99727.16;5014164;28;20037;-65
2023/10/31 03:19:11;;;;;;;30.52;21.00;;;;;;;10.69;100.00;99724.53;5014274;28;20491;-65
2023/10/31 03:21:37;;;;;;;32.75;22.33;;;;;;;10.68;100.00;99735.97;5013957;28;20494;-65
2023/10/31 03:24:02;;;;;;;34.53;23.08;;;;;;;10.69;100.00;99732.44;5013939;28;20037;-69
2023/10/31 03:26:28;;;;;;;37.05;22.95;;;;;;;10.68;100.00;99742.13;5013821;28;20117;-66
2023/10/31 03:28:57;;;;;;;33.42;23.80;;;;;;;10.65;100.00;99741.28;5013829;28;20026;-66
2023/10/31 03:31:23;;;;;;;35.15;24.30;;;;;;;10.66;100.00;99743.94;5013731;28;20542;-67
2023/10/31 03:33:48;;;;;;;38.85;24.90;;;;;;;10.64;100.00;99745.69;5013853;28;20045;-67
2023/10/31 03:36:13;;;;;;;39.42;24.80;;;;;;;10.68;100.00;99751.84;5013756;28;20392;-66
2023/10/31 03:38:39;;;;;;;32.90;22.60;;;;;;;10.65;100.00;99752.72;5013335;28;20050;-67
2023/10/31 03:41:04;;;;;;;36.05;23.73;;;;;;;10.65;100.00;99759.78;5013550;28;20391;-66
2023/10/31 03:43:30;;;;;;;40.67;26.83;;;;;;;10.60;100.00;99740.44;5013543;28;20029;-66
2023/10/31 03:45:55;;;;;;;38.22;24.58;;;;;;;10.65;100.00;99754.50;5013850;28;20040;-67
2023/10/31 03:48:21;;;;;;;37.40;25.55;;;;;;;10.64;100.00;99750.97;5013447;28;20048;-68
2023/10/31 03:50:46;;;;;;;37.65;25.65;;;;;;;10.64;100.00;99761.53;5013433;28;20104;-67
2023/10/31 03:53:12;;;;;;;40.42;25.17;;;;;;;10.65;100.00;99765.94;5013436;28;20105;-67
2023/10/31 03:55:37;;;;;;;41.42;24.80;;;;;;;10.66;100.00;99766.81;5013177;28;20022;-66
2023/10/31 03:58:03;;;;;;;39.58;25.48;;;;;;;10.68;100.00;99772.97;5013494;28;20034;-67
2023/10/31 04:00:28;;;;;;;34.35;23.63;;;;;;;10.70;100.00;99769.41;5012241;28;20042;-67
2023/10/31 04:02:54;;;;;;;39.65;26.35;;;;;;;10.70;100.00;99777.34;5013370;28;20061;-66
2023/10/31 04:05:19;;;;;;;38.38;26.20;;;;;;;10.69;100.00;99783.50;5013302;28;20053;-66
2023/10/31 04:07:48;;;;;;;38.33;25.88;;;;;;;10.69;100.00;99786.16;5012960;28;20025;-66
2023/10/31 04:10:13;;;;;;;41.80;26.45;;;;;;;10.66;100.00;99780.00;5013099;28;20113;-67
2023/10/31 04:12:39;;;;;;;36.95;25.95;;;;;;;10.70;100.00;99787.03;5013240;28;20524;-67
2023/10/31 04:15:05;;;;;;;43.30;27.23;;;;;;;10.67;100.00;99789.72;5013132;28;20025;-69
2023/10/31 04:17:31;;;;;;;37.35;26.15;;;;;;;10.66;100.00;99791.47;5013514;28;20101;-66
2023/10/31 04:19:56;;;;;;;39.78;27.23;;;;;;;10.66;100.00;99793.22;5013132;28;20164;-68
2023/10/31 04:22:21;;;;;;;38.40;26.15;;;;;;;10.66;100.00;99790.56;5013212;28;20030;-66
2023/10/31 04:24:47;;;;;;;38.58;25.58;;;;;;;10.67;100.00;99800.28;5013004;28;20107;-66
2023/10/31 04:27:12;;;;;;;36.78;25.35;;;;;;;10.62;100.00;99788.84;5013067;28;20038;-67
2023/10/31 04:29:38;;;;;;;38.47;24.67;;;;;;;10.65;100.00;99799.41;5012994;28;20482;-66
2023/10/31 04:32:03;;;;;;;39.08;26.35;;;;;;;10.65;100.00;99807.31;5013039;28;20029;-66
2023/10/31 04:34:29;;;;;;;35.58;24.42;;;;;;;10.66;100.00;99819.63;5013225;28;20025;-65
2023/10/31 04:36:54;;;;;;;38.58;25.55;;;;;;;10.63;100.00;99810.00;5013013;28;20480;-67
2023/10/31 04:39:19;;;;;;;36.65;23.88;;;;;;;10.65;100.00;99810.84;5012583;28;20100;-67
2023/10/31 04:41:45;;;;;;;34.33;23.63;;;;;;;10.62;100.00;99800.31;5013005;28;20068;-66
2023/10/31 04:44:10;;;;;;;33.05;23.38;;;;;;;10.61;100.00;99818.78;5013208;28;20038;-65
2023/10/31 04:46:36;;;;;;;30.65;21.63;;;;;;;10.57;100.00;99823.22;5013203;28;20137;-66
2023/10/31 04:49:01;;;;;;;32.17;22.33;;;;;;;10.60;100.00;99822.34;5012819;28;20467;-67
2023/10/31 04:51:26;;;;;;;31.23;21.05;;;;;;;10.58;100.00;99829.38;5013133;28;20033;-68
2023/10/31 04:53:52;;;;;;;27.98;19.70;;;;;;;10.58;100.00;99835.56;5011718;28;20030;-66
2023/10/31 04:56:17;;;;;;;30.02;20.30;;;;;;;10.55;100.00;99850.53;5012754;28;20038;-66
2023/10/31 04:58:43;;;;;;;25.48;19.05;;;;;;;10.53;100.00;99845.25;5012927;28;20040;-67
2023/10/31 05:01:13;;;;;;;27.42;19.80;;;;;;;10.55;100.00;99850.53;5012946;28;20434;-66
2023/10/31 05:03:38;;;;;;;27.75;19.83;;;;;;;10.55;100.00;99855.81;5012843;28;20026;-67
2023/10/31 05:06:04;;;;;;;27.17;20.00;;;;;;;10.54;100.00;99849.66;5012804;28;20032;-68
2023/10/31 05:08:30;;;;;;;27.75;19.75;;;;;;;10.52;100.00;99843.50;5011218;28;20030;-67
2023/10/31 05:10:58;;;;;;;22.80;16.88;;;;;;;10.51;100.00;99854.97;5012703;28;20506;-69
2023/10/31 05:13:23;;;;;;;21.42;15.35;;;;;;;10.46;100.00;99844.41;5012750;28;20476;-65
2023/10/31 05:15:48;;;;;;;19.88;15.02;;;;;;;10.43;100.00;99848.84;5012671;28;20089;-67
2023/10/31 05:18:15;;;;;;;23.73;14.70;;;;;;;10.43;100.00;99843.56;5012743;28;20472;-66
2023/10/31 05:20:40;;;;;;;21.05;15.73;;;;;;;10.44;100.00;99842.66;5012927;28;20061;-67
2023/10/31 05:23:05;;;;;;;23.52;15.90;;;;;;;10.46;100.00;99857.63;5012638;28;20026;-66
2023/10/31 05:25:31;;;;;;;20.95;15.25;;;;;;;10.44;100.00;99845.28;5011178;28;20030;-67
2023/10/31 05:27:56;;;;;;;23.98;17.05;;;;;;;10.41;100.00;99850.63;5014366;28;20065;-66
2023/10/31 05:30:22;;;;;;;25.08;17.92;;;;;;;10.39;100.00;99853.25;5016189;28;20108;-67
2023/10/31 05:32:47;;;;;;;28.98;20.08;;;;;;;10.37;100.00;99839.19;5016128;28;20072;-65
2023/10/31 05:35:13;;;;;;;24.73;18.83;;;;;;;10.38;100.00;99847.97;5016014;28;20109;-65
2023/10/31 05:37:38;;;;;;;26.20;18.90;;;;;;;10.38;100.00;99850.63;5015825;28;20034;-66
2023/10/31 05:40:04;;;;;;;25.33;18.60;;;;;;;10.38;100.00;99848.84;5015899;28;20022;-67
2023/10/31 05:42:30;;;;;;;22.92;18.48;;;;;;;10.39;100.00;99865.56;5016220;28;20108;-67
2023/10/31 05:44:56;;;;;;;23.52;18.23;;;;;;;10.39;100.00;99869.09;5015932;28;20058;-67
2023/10/31 05:47:22;;;;;;;24.08;18.63;;;;;;;10.38;100.00;99872.63;5015758;28;20040;-65
2023/10/31 05:49:48;;;;;;;24.80;18.75;;;;;;;10.34;100.00;99876.16;5015831;28;20109;-67
2023/10/31 05:52:13;;;;;;;23.80;18.52;;;;;;;10.36;100.00;99886.69;5016024;28;20018;-67
2023/10/31 05:54:38;;;;;;;23.80;18.30;;;;;;;10.36;100.00;99890.22;5015783;28;20038;-68
2023/10/31 05:57:04;;;;;;;21.73;17.23;;;;;;;10.36;100.00;99890.22;5015740;28;20030;-66
2023/10/31 05:59:29;;;;;;;26.38;19.38;;;;;;;10.37;100.00;99889.34;5015641;28;20022;-67
2023/10/31 06:01:55;;;;;;;20.85;16.90;;;;;;;10.38;100.00;99887.59;5015858;28;20041;-66
2023/10/31 06:04:20;;;;;;;25.52;18.02;;;;;;;10.37;100.00;99902.56;5015479;28;20037;-67
2023/10/31 06:06:46;;;;;;;22.60;18.05;;;;;;;10.36;100.00;99902.53;5015386;28;20376;-67
2023/10/31 06:09:11;;;;;;;22.75;17.83;;;;;;;10.36;100.00;99907.81;5015386;28;20033;-66
2023/10/31 06:11:40;;;;;;;22.98;17.58;;;;;;;10.36;100.00;99907.81;5015346;28;20034;-66
2023/10/31 06:14:06;;;;;;;21.48;17.20;;;;;;;10.35;100.00;99917.53;5015545;28;20022;-66
2023/10/31 06:16:31;;;;;;;20.90;16.65;;;;;;;10.34;100.00;99913.13;5015399;28;20026;-68
2023/10/31 06:18:56;;;;;;;20.08;15.65;;;;;;;10.34;100.00;99926.34;5015322;28;20113;-67
2023/10/31 06:21:22;;;;;;;17.67;15.02;;;;;;;10.33;100.00;99935.16;5015192;28;20037;-67
2023/10/31 06:23:47;;;;;;;16.58;13.02;;;;;;;10.37;100.00;99938.66;4997622;28;20022;-67
2023/10/31 06:26:13;;;;;;;17.83;14.57;;;;;;;10.36;100.00;99936.88;5015011;28;20104;-66
2023/10/31 06:28:39;;;;;;;17.98;14.20;;;;;;;10.36;100.00;99940.41;5015167;28;20029;-66
2023/10/31 06:31:05;;;;;;;17.52;14.50;;;;;;;10.33;100.00;99934.28;5015196;28;20038;-66
2023/10/31 06:33:30;;;;;;;18.40;14.75;;;;;;;10.33;100.00;99951.00;5014742;28;20506;-66
2023/10/31 06:35:56;;;;;;;16.95;14.65;;;;;;;10.30;100.00;99944.84;5014886;28;20040;-65
2023/10/31 06:38:21;;;;;;;19.67;14.55;;;;;;;10.31;100.00;99952.75;5014265;28;20057;-66
2023/10/31 06:40:46;;;;;;;20.55;15.02;;;;;;;10.30;100.00;99950.13;5013695;28;20073;-66
2023/10/31 06:43:12;;;;;;;18.25;14.40;;;;;;;10.32;100.00;99953.63;5014730;28;20026;-67
2023/10/31 06:45:37;;;;;;;20.95;15.55;;;;;;;10.32;100.00;99953.63;5014599;28;20030;-66
2023/10/31 06:48:03;;;;;;;19.48;14.38;;;;;;;10.31;100.00;99957.13;5014562;28;20084;-65
2023/10/31 06:50:28;;;;;;;20.63;16.45;;;;;;;10.30;100.00;99952.75;5014562;28;20369;-67
2023/10/31 06:52:54;;;;;;;19.30;16.08;;;;;;;10.31;100.00;99963.28;5014756;28;20026;-67
2023/10/31 06:55:19;;;;;;;20.33;15.68;;;;;;;10.32;100.00;99956.25;5014302;28;20028;-67
2023/10/31 06:57:45;;;;;;;22.10;16.83;;;;;;;10.31;100.00;99960.66;5014366;28;20037;-67
2023/10/31 07:00:11;;;;;;;22.55;17.60;;;;;;;10.32;100.00;99965.09;5013099;28;20068;-66
2023/10/31 07:02:37;;;;;;;19.38;16.58;;;;;;;10.35;100.00;99965.06;5014251;28;20037;-65
2023/10/31 07:05:03;;;;;;;19.55;15.90;;;;;;;10.38;100.00;99972.09;5014210;28;20053;-69
2023/10/31 07:07:29;;;;;;;22.38;16.73;;;;;;;10.38;100.00;99972.09;5014192;28;20033;-66
2023/10/31 07:09:54;;;;;;;19.10;16.48;;;;;;;10.39;100.00;99980.00;5014095;28;20032;-67
2023/10/31 07:12:19;;;;;;;21.25;16.88;;;;;;;10.40;100.00;99981.75;5012841;28;20021;-67
2023/10/31 07:14:45;;;;;;;21.00;17.38;;;;;;;10.40;100.00;99976.47;5014078;28;20030;-65
2023/10/31 07:17:10;;;;;;;21.50;17.38;;;;;;;10.40;100.00;99975.59;5012737;28;20068;-66
2023/10/31 07:19:36;;;;;;;19.92;15.68;;;;;;;10.43;100.00;99981.75;5014055;28;20193;-66
2023/10/31 07:22:02;;;;;;;20.45;16.40;;;;;;;10.46;100.00;99986.16;5014064;28;20034;-65
2023/10/31 07:24:27;;;;;;;20.02;16.17;;;;;;;10.48;100.00;99981.75;5013995;28;20339;-66
2023/10/31 07:26:54;;;;;;;21.52;15.90;;;;;;;10.47;100.00;99980.88;5013864;28;20566;-66
2023/10/31 07:29:19;;;;;;;19.55;14.93;;;;;;;10.51;100.00;99981.75;5013753;28;20506;-66
2023/10/31 07:31:45;;;;;;;18.42;15.30;;;;;;;10.51;100.00;99979.97;5013805;28;20026;-66
2023/10/31 07:34:11;;;;;;;19.27;14.57;;;;;;;10.51;100.00;99987.03;5013793;28;20040;-65
2023/10/31 07:36:39;;;;;;;18.83;14.65;;;;;;;10.52;100.00;99988.78;5013902;28;20038;-67
2023/10/31 07:39:04;;;;;;;17.27;13.70;;;;;;;10.52;100.00;99991.41;5013261;28;20408;-67
2023/10/31 07:41:30;;;;;;;18.17;14.75;;;;;;;10.51;100.00;99992.31;5013556;28;20022;-66
2023/10/31 07:43:55;;;;;;;18.15;13.85;;;;;;;10.57;100.00;99994.91;5013511;28;20024;-66
2023/10/31 07:46:21;;;;;;;15.63;13.30;;;;;;;10.69;100.00;99994.88;5013396;28;20034;-67
2023/10/31 07:48:47;;;;;;;16.15;13.20;;;;;;;10.87;100.00;99996.56;5013632;28;20061;-67
2023/10/31 07:51:12;;;;;;;16.15;12.63;;;;;;;11.03;100.00;99986.81;5013375;28;20495;-66
2023/10/31 07:53:37;;;;;;;15.73;11.82;;;;;;;11.23;100.00;99995.53;5013398;28;20017;-67
2023/10/31 07:56:03;;;;;;;13.85;12.25;;;;;;;11.35;100.00;99991.94;5013269;28;20379;-66
2023/10/31 07:58:29;;;;;;;15.38;11.30;;;;;;;11.47;100.00;100004.19;5013303;28;20108;-66
2023/10/31 08:00:54;;;;;;;14.57;11.60;;;;;;;11.48;100.00;100006.84;5013247;28;20033;-66
2023/10/31 08:03:19;;;;;;;12.43;10.98;;;;;;;11.42;100.00;100009.50;5013538;28;20476;-67
2023/10/31 08:05:45;;;;;;;14.20;11.05;;;;;;;11.35;100.00;100007.81;5013311;28;20357;-66
2023/10/31 08:08:10;;;;;;;15.45;12.50;;;;;;;11.31;100.00;100003.44;5013017;28;20042;-66
2023/10/31 08:10:36;;;;;;;15.07;11.35;;;;;;;11.29;100.00;100010.47;5013179;28;20060;-67
2023/10/31 08:13:01;;;;;;;13.43;11.75;;;;;;;11.30;100.00;100006.94;5013513;28;20028;-66
2023/10/31 08:15:26;;;;;;;15.98;12.57;;;;;;;11.32;100.00;100018.41;5013117;28;20109;-66
2023/10/31 08:17:52;;;;;;;15.82;12.65;;;;;;;11.35;100.00;100020.13;5013140;28;20026;-66
2023/10/31 08:20:17;;;;;;;15.27;13.23;;;;;;;11.33;100.00;100017.50;5013166;28;20025;-65
2023/10/31 08:22:42;;;;;;;16.60;14.55;;;;;;;11.35;100.00;100018.41;5013175;28;20057;-66
2023/10/31 08:25:08;;;;;;;21.27;15.30;;;;;;;11.29;100.00;100019.28;5013256;28;20034;-66
2023/10/31 08:27:34;;;;;;;20.30;15.75;;;;;;;11.28;100.00;100017.53;5013060;28;20022;-66
2023/10/31 08:30:00;;;;;;;21.67;16.92;;;;;;;11.26;100.00;100014.03;5012949;28;20069;-66
2023/10/31 08:32:25;;;;;;;21.90;17.88;;;;;;;11.23;100.00;100024.63;5011844;28;20034;-66
2023/10/31 08:34:50;;;;;;;21.55;17.17;;;;;;;11.22;100.00;100027.25;5012871;28;20116;-66
2023/10/31 08:37:16;;;;;;;24.50;17.77;;;;;;;11.16;100.00;100030.81;5012950;28;20069;-66
2023/10/31 08:39:41;;;;;;;22.35;18.42;;;;;;;11.11;100.00;100031.72;5012527;28;20045;-66
2023/10/31 08:42:07;;;;;;;22.50;17.58;;;;;;;11.11;100.00;100034.38;5012810;28;20070;-67
2023/10/31 08:44:33;;;;;;;22.77;17.40;;;;;;;11.12;100.00;100033.47;5012925;28;20365;-66
2023/10/31 08:46:59;;;;;;;22.60;16.80;;;;;;;11.13;100.00;100044.03;5012697;28;20065;-67
2023/10/31 08:49:24;;;;;;;22.77;16.70;;;;;;;11.15;100.00;100057.28;5011800;28;20057;-67
2023/10/31 08:51:49;;;;;;;22.38;17.95;;;;;;;11.18;100.00;100058.16;5012812;28;20526;-67
2023/10/31 08:54:15;;;;;;;21.73;17.85;;;;;;;11.27;100.00;100055.47;5013032;28;20046;-67
2023/10/31 08:56:40;;;;;;;22.20;15.70;;;;;;;11.28;100.00;100056.34;5011403;28;20049;-67
2023/10/31 08:59:06;;;;;;;20.08;15.77;;;;;;;11.26;100.00;100066.03;5013013;28;20475;-67
2023/10/31 09:01:33;;;;;;;22.10;16.17;;;;;;;11.24;100.00;100065.16;5013023;28;20057;-66
2023/10/31 09:03:58;;;;;;;21.40;16.38;;;;;;;11.21;100.00;100058.09;5016150;28;20052;-66
2023/10/31 09:06:24;;;;;;;23.10;16.65;;;;;;;11.34;100.00;100074.81;5016408;28;20479;-67
2023/10/31 09:08:50;;;;;;;21.25;15.98;;;;;;;11.44;100.00;100075.66;5016071;28;20018;-67
2023/10/31 09:11:15;;;;;;;25.05;16.27;;;;;;;11.42;100.00;100083.59;5016438;28;20491;-67
2023/10/31 09:13:41;;;;;;;21.30;15.35;;;;;;;11.42;100.00;100090.66;5016303;28;20071;-68
2023/10/31 09:16:06;;;;;;;22.25;14.95;;;;;;;11.52;100.00;100090.59;5016556;28;20045;-66
2023/10/31 09:18:32;;;;;;;20.95;15.35;;;;;;;11.58;100.00;100097.63;5016132;28;20121;-66
2023/10/31 09:20:58;;;;;;;22.17;15.20;;;;;;;11.60;100.00;100098.47;5016122;28;20101;-67
2023/10/31 09:23:23;;;;;;;21.27;14.93;;;;;;;11.68;100.00;100096.66;5016151;28;20026;-68
2023/10/31 09:25:48;;;;;;;26.63;14.35;;;;;;;11.73;100.00;100102.84;5015934;28;20546;-66
2023/10/31 09:28:14;;;;;;;19.75;14.60;;;;;;;11.83;100.00;100108.97;5015920;28;20037;-67
2023/10/31 09:30:39;;;;;;;20.77;14.95;;;;;;;11.95;100.00;100118.63;5015275;28;20048;-68
2023/10/31 09:33:06;;;;;;;22.40;14.48;;;;;;;11.91;100.00;100120.41;5016185;28;20022;-66
2023/10/31 09:35:31;;;;;;;19.30;14.73;;;;;;;11.87;100.00;100117.78;5015722;28;20361;-67
2023/10/31 09:37:57;;;;;;;19.42;14.70;;;;;;;11.96;100.00;100128.31;5015150;28;20053;-66
2023/10/31 09:40:23;;;;;;;20.33;14.45;;;;;;;11.99;100.00;100128.28;5015798;28;20030;-65
2023/10/31 09:42:51;;;;;;;22.45;15.30;;;;;;;12.14;100.00;100130.84;5015272;28;20033;-65
2023/10/31 09:45:17;;;;;;;22.55;15.38;;;;;;;12.23;100.00;100138.69;5014234;28;20066;-66
2023/10/31 09:47:43;;;;;;;19.17;14.43;;;;;;;12.18;100.00;100140.50;5015590;28;20026;-66
2023/10/31 09:50:09;;;;;;;21.17;14.18;;;;;;;12.13;100.00;100138.78;5014737;28;20037;-65
2023/10/31 09:52:38;;;;;;;18.00;13.57;;;;;;;12.02;100.00;100141.50;5013767;28;20053;-66
2023/10/31 09:55:05;;;;;;;20.17;13.77;;;;;;;11.93;100.00;100139.78;5015344;28;20018;-66
2023/10/31 09:57:30;;;;;;;20.35;14.23;;;;;;;11.89;100.00;100153.06;5015139;28;20368;-67
2023/10/31 09:59:56;;;;;;;19.48;13.43;;;;;;;11.86;100.00;100153.97;5015485;28;20459;-66
2023/10/31 10:02:21;;;;;;;20.17;13.80;;;;;;;11.87;100.00;100153.09;5015692;28;20383;-66
2023/10/31 10:04:50;;;;;;;21.83;13.90;;;;;;;11.85;100.00;100154.84;5015482;28;20473;-66
2023/10/31 10:07:16;;;;;;;22.50;15.27;;;;;;;11.85;100.00;100159.25;5015334;28;20037;-67
2023/10/31 10:09:46;;;;;;;19.73;14.02;;;;;;;11.95;100.00;100169.81;5015266;28;20022;-67
2023/10/31 10:12:13;;;;;;;21.67;13.23;;;;;;;11.97;100.00;100172.44;5015571;28;20496;-66
2023/10/31 10:14:39;;;;;;;19.55;13.48;;;;;;;12.02;100.00;100179.44;5014869;28;20490;-65
2023/10/31 10:17:16;;;;;;;19.55;13.50;;;;;;;12.12;100.00;100177.66;5015602;28;20034;-67
2023/10/31 10:19:41;;;;;;;17.00;13.25;;;;;;;12.15;100.00;100182.03;5015447;28;20033;-67
2023/10/31 10:22:07;;;;;;;17.45;12.48;;;;;;;12.19;100.00;100181.13;5015148;28;20506;-68
2023/10/31 10:24:32;;;;;;;15.80;12.30;;;;;;;12.19;100.00;100181.13;5015234;28;20026;-67
2023/10/31 10:26:57;;;;;;;16.20;12.35;;;;;;;12.14;100.00;100182.91;5015053;28;20424;-66
2023/10/31 10:29:23;;;;;;;18.23;13.48;;;;;;;12.15;100.00;100192.63;5015341;28;20021;-66
2023/10/31 10:31:48;;;;;;;21.75;13.18;;;;;;;12.13;100.00;100184.69;5015109;28;20018;-65
2023/10/31 10:34:16;;;;;;;18.13;11.73;;;;;;;12.10;100.00;100199.72;5013750;28;20372;-67
2023/10/31 10:36:47;;;;;;;18.13;13.20;;;;;;;12.05;100.00;100205.03;5015068;28;20030;-67
2023/10/31 10:39:19;;;;;;;20.90;12.48;;;;;;;12.11;100.00;100205.00;5014557;28;20054;-66
2023/10/31 10:41:46;;;;;;;17.92;12.73;;;;;;;12.17;100.00;100204.97;5015206;28;20034;-66
2023/10/31 10:44:13;;;;;;;19.27;12.50;;;;;;;12.16;100.00;100208.53;5014987;28;20109;-66
2023/10/31 10:46:41;;;;;;;17.77;12.40;;;;;;;12.24;100.00;100211.97;5014760;28;20117;-66
2023/10/31 10:49:07;;;;;;;17.90;12.48;;;;;;;12.28;100.00;100202.25;5014682;28;20113;-66
2023/10/31 10:51:56;;;;;;;16.35;11.93;;;;;;;12.56;100.00;100212.66;5014752;28;20484;-66
2023/10/31 10:54:49;;;;;;;17.98;11.95;;;;;;;12.81;100.00;100222.19;5014944;28;20424;-66
2023/10/31 10:57:27;;;;;;;14.38;11.23;;;;;;;12.90;100.00;100216.81;5014795;28;20022;-66
2023/10/31 10:59:56;;;;;;;14.25;11.65;;;;;;;12.97;100.00;100213.19;5014581;28;20049;-68
2023/10/31 11:02:22;;;;;;;16.98;10.82;;;;;;;12.98;100.00;100214.97;5014570;28;20026;-65